Orchard Park, NY

1:46 PM EST on December 26, 2014 (GMT -0500)
Niagara Falls International | Change Station
CLOSE
Current Station
Airport
Location: Niagara Falls,
Elevation: 584 ft
Nearby Weather Stations

Elev 584 ft 43.11 °N, 78.94 °W | Updated 53 minutes ago

Partly Cloudy
Partly Cloudy
44 °F
Feels Like 36 °F
N
18
Wind Variable Wind from SW
Gusts 24 mph

Today
High -- | Low -- °F
--% Chance of Precip.
Yesterday
High -- | Low -- °F
Precip. -- in
7:44 AM 4:47 PM
Waxing Crescent, 28% visible
Pressure 30.17 in
Visibility 10.0 miles
Clouds Few 2800 ft
Scattered Clouds 15000 ft
Mostly Cloudy 25000 ft
Windchill 36 °F
Dew Point 33 °F
Humidity 65%
Rainfall 0.00 in
Snow Depth Not available.
UV 1 out of 12
Pollen .10 out of 12
Air Quality Not available.
Flu Activity Not available.
METAR KIAG 261753Z 22016G21KT 10SM FEW028 SCT150 BKN250 07/01 A3013 RMK AO2 SLP214 T00670006 10067 20022 58023

More Conditions Fewer Conditions

Pressure 30.17 in
Visibility 10.0 miles
Clouds Few 2800 ft
Scattered Clouds 15000 ft
Mostly Cloudy 25000 ft
Windchill 36 °F
Dew Point 33 °F
Humidity 65%
Rainfall 0.00 in
Snow Depth Not available.
UV 1 out of 12
Pollen .10 out of 12
Air Quality Not available.
Flu Activity Not available.
METAR KIAG 261753Z 22016G21KT 10SM FEW028 SCT150 BKN250 07/01 A3013 RMK AO2 SLP214 T00670006 10067 20022 58023

More Conditions Fewer Conditions

10-Day Weather Forecast

Almanac

Astronomy

Dec. 26, 2014 Rise Set
Actual Time
Civil Twilight
Nautical Twilight
Astronomical Twilight
Moon
Length of Visible Light
Length of Day
Tomorrow will be .
, % of the Moon is Illuminated

Today's Extremes

State Highs State Lows

Community

WunderPhotos

Upload Photos

1,780,668 photos uploaded!

WunderBlogs® & News

Nearby

Air Quality

  Air Quality AQ Index Pollutant
Not available.

Snow Depth

Station Depth Elevation

Earthquake Activity

City Distance Mag. Time & Date
Minimum magnitude displayed is 2.5.

Coastal Water Temperatures

Place Temperature

Nearby Weather Stations